sensor_id;sensor_type;location;lat;lon;timestamp;temperature;humidity
34640;DHT22;22600;48.186;11.526;2023-04-24T00:01:15;23.50;57.90
34640;DHT22;22600;48.186;11.526;2023-04-24T00:03:42;23.40;57.90
34640;DHT22;22600;48.186;11.526;2023-04-24T00:06:07;23.50;58.00
34640;DHT22;22600;48.186;11.526;2023-04-24T00:08:33;23.50;58.30
34640;DHT22;22600;48.186;11.526;2023-04-24T00:10:59;23.50;58.20
34640;DHT22;22600;48.186;11.526;2023-04-24T00:13:25;23.50;58.20
34640;DHT22;22600;48.186;11.526;2023-04-24T00:15:50;23.50;58.10
34640;DHT22;22600;48.186;11.526;2023-04-24T00:18:16;23.50;58.00
34640;DHT22;22600;48.186;11.526;2023-04-24T00:20:42;23.50;58.00
34640;DHT22;22600;48.186;11.526;2023-04-24T00:23:08;23.50;57.50
34640;DHT22;22600;48.186;11.526;2023-04-24T00:25:34;23.50;58.00
34640;DHT22;22600;48.186;11.526;2023-04-24T00:28:00;23.50;58.00
34640;DHT22;22600;48.186;11.526;2023-04-24T00:30:25;23.50;58.70
34640;DHT22;22600;48.186;11.526;2023-04-24T00:32:50;23.50;58.10
34640;DHT22;22600;48.186;11.526;2023-04-24T00:35:16;23.40;58.00
34640;DHT22;22600;48.186;11.526;2023-04-24T00:37:41;23.40;58.00
34640;DHT22;22600;48.186;11.526;2023-04-24T00:40:07;23.50;58.00
34640;DHT22;22600;48.186;11.526;2023-04-24T00:42:33;23.40;58.10
34640;DHT22;22600;48.186;11.526;2023-04-24T00:44:59;23.40;58.10
34640;DHT22;22600;48.186;11.526;2023-04-24T00:47:25;23.50;58.00
34640;DHT22;22600;48.186;11.526;2023-04-24T00:49:50;23.50;58.20
34640;DHT22;22600;48.186;11.526;2023-04-24T00:52:16;23.40;58.20
34640;DHT22;22600;48.186;11.526;2023-04-24T00:54:45;23.50;58.20
34640;DHT22;22600;48.186;11.526;2023-04-24T00:57:11;26.20;59.70
34640;DHT22;22600;48.186;11.526;2023-04-24T00:59:37;23.40;58.20
34640;DHT22;22600;48.186;11.526;2023-04-24T01:02:04;23.50;58.30
34640;DHT22;22600;48.186;11.526;2023-04-24T01:04:29;23.50;58.20
34640;DHT22;22600;48.186;11.526;2023-04-24T01:06:55;23.40;58.20
34640;DHT22;22600;48.186;11.526;2023-04-24T01:09:21;23.50;58.50
34640;DHT22;22600;48.186;11.526;2023-04-24T01:11:48;23.50;58.30
34640;DHT22;22600;48.186;11.526;2023-04-24T01:14:14;23.40;58.20
34640;DHT22;22600;48.186;11.526;2023-04-24T01:16:40;23.40;58.20
34640;DHT22;22600;48.186;11.526;2023-04-24T01:19:06;23.40;58.50
34640;DHT22;22600;48.186;11.526;2023-04-24T01:21:32;23.40;58.70
34640;DHT22;22600;48.186;11.526;2023-04-24T01:23:59;23.50;58.60
34640;DHT22;22600;48.186;11.526;2023-04-24T01:26:25;23.40;58.50
34640;DHT22;22600;48.186;11.526;2023-04-24T01:28:50;23.40;58.60
34640;DHT22;22600;48.186;11.526;2023-04-24T01:31:16;24.70;59.30
34640;DHT22;22600;48.186;11.526;2023-04-24T01:33:42;23.40;58.50
34640;DHT22;22600;48.186;11.526;2023-04-24T01:36:08;23.50;58.40
34640;DHT22;22600;48.186;11.526;2023-04-24T01:38:35;23.50;58.30
34640;DHT22;22600;48.186;11.526;2023-04-24T01:41:00;23.40;58.20
34640;DHT22;22600;48.186;11.526;2023-04-24T01:43:25;23.50;58.30
34640;DHT22;22600;48.186;11.526;2023-04-24T01:45:51;23.50;58.40
34640;DHT22;22600;48.186;11.526;2023-04-24T01:48:17;23.60;58.50
34640;DHT22;22600;48.186;11.526;2023-04-24T01:50:43;23.10;58.20
34640;DHT22;22600;48.186;11.526;2023-04-24T01:53:08;23.40;58.30
34640;DHT22;22600;48.186;11.526;2023-04-24T01:55:34;23.40;58.30
34640;DHT22;22600;48.186;11.526;2023-04-24T01:57:59;23.50;58.40
34640;DHT22;22600;48.186;11.526;2023-04-24T02:00:25;23.40;58.30
34640;DHT22;22600;48.186;11.526;2023-04-24T02:02:51;23.50;58.30
34640;DHT22;22600;48.186;11.526;2023-04-24T02:05:16;23.40;58.40
34640;DHT22;22600;48.186;11.526;2023-04-24T02:07:42;23.40;58.40
34640;DHT22;22600;48.186;11.526;2023-04-24T02:10:07;23.40;58.30
34640;DHT22;22600;48.186;11.526;2023-04-24T02:12:33;23.40;58.30
34640;DHT22;22600;48.186;11.526;2023-04-24T02:14:58;23.40;58.30
34640;DHT22;22600;48.186;11.526;2023-04-24T02:17:24;23.40;58.40
34640;DHT22;22600;48.186;11.526;2023-04-24T02:19:49;23.40;58.50
34640;DHT22;22600;48.186;11.526;2023-04-24T02:22:15;23.50;58.50
34640;DHT22;22600;48.186;11.526;2023-04-24T02:24:40;23.40;58.40
34640;DHT22;22600;48.186;11.526;2023-04-24T02:27:06;23.40;58.40
34640;DHT22;22600;48.186;11.526;2023-04-24T02:29:32;23.40;58.60
34640;DHT22;22600;48.186;11.526;2023-04-24T02:31:57;23.40;58.00
34640;DHT22;22600;48.186;11.526;2023-04-24T02:34:22;23.30;58.70
34640;DHT22;22600;48.186;11.526;2023-04-24T02:36:48;23.40;58.70
34640;DHT22;22600;48.186;11.526;2023-04-24T02:39:14;23.70;58.90
34640;DHT22;22600;48.186;11.526;2023-04-24T02:41:42;23.30;58.60
34640;DHT22;22600;48.186;11.526;2023-04-24T02:44:07;23.40;58.70
34640;DHT22;22600;48.186;11.526;2023-04-24T02:46:32;23.40;58.60
34640;DHT22;22600;48.186;11.526;2023-04-24T02:48:58;23.40;58.60
34640;DHT22;22600;48.186;11.526;2023-04-24T02:51:23;23.40;58.60
34640;DHT22;22600;48.186;11.526;2023-04-24T02:53:49;23.40;58.60
34640;DHT22;22600;48.186;11.526;2023-04-24T02:56:15;24.90;59.30
34640;DHT22;22600;48.186;11.526;2023-04-24T02:58:40;23.40;58.60
34640;DHT22;22600;48.186;11.526;2023-04-24T03:01:05;23.40;58.50
34640;DHT22;22600;48.186;11.526;2023-04-24T03:03:31;23.40;58.70
34640;DHT22;22600;48.186;11.526;2023-04-24T03:05:56;23.40;58.70
34640;DHT22;22600;48.186;11.526;2023-04-24T03:08:22;23.40;58.70
34640;DHT22;22600;48.186;11.526;2023-04-24T03:10:48;23.40;58.60
34640;DHT22;22600;48.186;11.526;2023-04-24T03:13:13;23.40;58.60
34640;DHT22;22600;48.186;11.526;2023-04-24T03:15:39;23.40;59.00
34640;DHT22;22600;48.186;11.526;2023-04-24T03:18:04;23.40;58.90
34640;DHT22;22600;48.186;11.526;2023-04-24T03:20:30;23.40;58.80
34640;DHT22;22600;48.186;11.526;2023-04-24T03:22:55;23.40;58.80
34640;DHT22;22600;48.186;11.526;2023-04-24T03:25:22;23.40;59.10
34640;DHT22;22600;48.186;11.526;2023-04-24T03:27:47;23.40;59.40
34640;DHT22;22600;48.186;11.526;2023-04-24T03:30:13;23.40;59.50
34640;DHT22;22600;48.186;11.526;2023-04-24T03:32:38;23.40;59.50
34640;DHT22;22600;48.186;11.526;2023-04-24T03:35:05;23.40;59.60
34640;DHT22;22600;48.186;11.526;2023-04-24T03:37:31;23.40;59.70
34640;DHT22;22600;48.186;11.526;2023-04-24T03:39:57;23.40;59.70
34640;DHT22;22600;48.186;11.526;2023-04-24T03:42:22;23.40;59.50
34640;DHT22;22600;48.186;11.526;2023-04-24T03:44:47;23.50;59.40
34640;DHT22;22600;48.186;11.526;2023-04-24T03:47:13;25.30;59.30
34640;DHT22;22600;48.186;11.526;2023-04-24T03:49:39;23.40;57.60
34640;DHT22;22600;48.186;11.526;2023-04-24T03:52:04;23.40;57.40
34640;DHT22;22600;48.186;11.526;2023-04-24T03:54:29;23.40;57.30
34640;DHT22;22600;48.186;11.526;2023-04-24T03:56:55;23.40;57.10
34640;DHT22;22600;48.186;11.526;2023-04-24T03:59:20;23.40;57.00
34640;DHT22;22600;48.186;11.526;2023-04-24T04:01:46;23.40;56.80
34640;DHT22;22600;48.186;11.526;2023-04-24T04:04:12;23.40;56.80
34640;DHT22;22600;48.186;11.526;2023-04-24T04:06:37;23.50;56.80
34640;DHT22;22600;48.186;11.526;2023-04-24T04:09:03;23.40;56.60
34640;DHT22;22600;48.186;11.526;2023-04-24T04:11:28;23.40;56.50
34640;DHT22;22600;48.186;11.526;2023-04-24T04:13:54;23.40;56.50
34640;DHT22;22600;48.186;11.526;2023-04-24T04:16:19;23.40;56.40
34640;DHT22;22600;48.186;11.526;2023-04-24T04:18:45;23.40;56.40
34640;DHT22;22600;48.186;11.526;2023-04-24T04:21:11;23.40;56.40
34640;DHT22;22600;48.186;11.526;2023-04-24T04:23:36;23.40;56.30
34640;DHT22;22600;48.186;11.526;2023-04-24T04:26:02;23.40;56.30
34640;DHT22;22600;48.186;11.526;2023-04-24T04:28:29;23.40;56.20
34640;DHT22;22600;48.186;11.526;2023-04-24T04:30:56;23.40;56.20
34640;DHT22;22600;48.186;11.526;2023-04-24T04:33:22;23.40;56.80
34640;DHT22;22600;48.186;11.526;2023-04-24T04:35:48;23.40;56.20
34640;DHT22;22600;48.186;11.526;2023-04-24T04:38:15;25.30;57.10
34640;DHT22;22600;48.186;11.526;2023-04-24T04:40:40;23.40;56.10
34640;DHT22;22600;48.186;11.526;2023-04-24T04:43:06;23.40;56.00
34640;DHT22;22600;48.186;11.526;2023-04-24T04:45:32;23.40;56.00
34640;DHT22;22600;48.186;11.526;2023-04-24T04:47:59;23.40;55.90
34640;DHT22;22600;48.186;11.526;2023-04-24T04:50:28;23.40;55.90
34640;DHT22;22600;48.186;11.526;2023-04-24T04:52:54;23.40;55.90
34640;DHT22;22600;48.186;11.526;2023-04-24T04:55:19;27.40;58.10
34640;DHT22;22600;48.186;11.526;2023-04-24T04:57:45;23.30;55.70
34640;DHT22;22600;48.186;11.526;2023-04-24T05:00:11;23.40;55.80
34640;DHT22;22600;48.186;11.526;2023-04-24T05:02:37;23.40;55.70
34640;DHT22;22600;48.186;11.526;2023-04-24T05:05:02;23.40;55.70
34640;DHT22;22600;48.186;11.526;2023-04-24T05:07:28;23.40;55.70
34640;DHT22;22600;48.186;11.526;2023-04-24T05:09:53;23.40;55.70
34640;DHT22;22600;48.186;11.526;2023-04-24T05:12:19;23.40;55.60
34640;DHT22;22600;48.186;11.526;2023-04-24T05:14:44;23.40;55.70
34640;DHT22;22600;48.186;11.526;2023-04-24T05:17:10;23.30;55.60
34640;DHT22;22600;48.186;11.526;2023-04-24T05:19:35;23.40;55.70
34640;DHT22;22600;48.186;11.526;2023-04-24T05:22:03;23.30;55.50
34640;DHT22;22600;48.186;11.526;2023-04-24T05:24:30;23.40;55.60
34640;DHT22;22600;48.186;11.526;2023-04-24T05:26:56;23.40;55.60
34640;DHT22;22600;48.186;11.526;2023-04-24T05:29:22;23.30;55.50
34640;DHT22;22600;48.186;11.526;2023-04-24T05:31:47;23.30;55.50
34640;DHT22;22600;48.186;11.526;2023-04-24T05:34:13;23.40;55.50
34640;DHT22;22600;48.186;11.526;2023-04-24T05:36:39;23.40;55.50
34640;DHT22;22600;48.186;11.526;2023-04-24T05:39:04;23.30;55.40
34640;DHT22;22600;48.186;11.526;2023-04-24T05:41:30;23.40;55.50
34640;DHT22;22600;48.186;11.526;2023-04-24T05:43:55;23.40;55.70
34640;DHT22;22600;48.186;11.526;2023-04-24T05:46:21;25.20;56.60
34640;DHT22;22600;48.186;11.526;2023-04-24T05:48:46;23.30;55.50
34640;DHT22;22600;48.186;11.526;2023-04-24T05:51:12;23.30;55.30
34640;DHT22;22600;48.186;11.526;2023-04-24T05:53:37;23.30;55.30
34640;DHT22;22600;48.186;11.526;2023-04-24T05:56:03;23.30;55.30
34640;DHT22;22600;48.186;11.526;2023-04-24T05:58:28;23.30;55.30
34640;DHT22;22600;48.186;11.526;2023-04-24T06:00:54;23.30;55.20
34640;DHT22;22600;48.186;11.526;2023-04-24T06:03:20;24.10;55.60
34640;DHT22;22600;48.186;11.526;2023-04-24T06:05:45;23.30;55.00
34640;DHT22;22600;48.186;11.526;2023-04-24T06:08:11;23.30;55.00
34640;DHT22;22600;48.186;11.526;2023-04-24T06:10:36;23.30;55.00
34640;DHT22;22600;48.186;11.526;2023-04-24T06:13:02;23.30;55.00
34640;DHT22;22600;48.186;11.526;2023-04-24T06:15:28;23.30;55.00
34640;DHT22;22600;48.186;11.526;2023-04-24T06:17:54;23.30;55.00
34640;DHT22;22600;48.186;11.526;2023-04-24T06:20:19;23.30;54.90
34640;DHT22;22600;48.186;11.526;2023-04-24T06:22:45;23.30;54.90
34640;DHT22;22600;48.186;11.526;2023-04-24T06:25:10;23.30;54.80
34640;DHT22;22600;48.186;11.526;2023-04-24T06:27:36;23.30;54.80
34640;DHT22;22600;48.186;11.526;2023-04-24T06:30:01;23.30;54.80
34640;DHT22;22600;48.186;11.526;2023-04-24T06:32:27;23.20;54.60
34640;DHT22;22600;48.186;11.526;2023-04-24T06:34:52;23.30;54.70
34640;DHT22;22600;48.186;11.526;2023-04-24T06:37:18;23.30;54.70
34640;DHT22;22600;48.186;11.526;2023-04-24T06:39:44;23.20;54.60
34640;DHT22;22600;48.186;11.526;2023-04-24T06:42:09;23.20;54.60
34640;DHT22;22600;48.186;11.526;2023-04-24T06:44:35;23.30;54.50
34640;DHT22;22600;48.186;11.526;2023-04-24T06:47:09;23.30;54.60
34640;DHT22;22600;48.186;11.526;2023-04-24T06:49:35;23.20;54.50
34640;DHT22;22600;48.186;11.526;2023-04-24T06:52:01;23.20;54.40
34640;DHT22;22600;48.186;11.526;2023-04-24T06:54:26;23.30;54.40
34640;DHT22;22600;48.186;11.526;2023-04-24T06:56:51;23.30;54.20
34640;DHT22;22600;48.186;11.526;2023-04-24T06:59:17;23.20;54.00
34640;DHT22;22600;48.186;11.526;2023-04-24T07:01:43;23.20;53.70
34640;DHT22;22600;48.186;11.526;2023-04-24T07:04:08;23.30;53.80
34640;DHT22;22600;48.186;11.526;2023-04-24T07:06:34;23.20;53.70
34640;DHT22;22600;48.186;11.526;2023-04-24T07:09:01;23.20;53.60
34640;DHT22;22600;48.186;11.526;2023-04-24T07:11:26;23.30;53.60
34640;DHT22;22600;48.186;11.526;2023-04-24T07:13:54;23.20;53.40
34640;DHT22;22600;48.186;11.526;2023-04-24T07:16:20;23.30;53.30
34640;DHT22;22600;48.186;11.526;2023-04-24T07:18:45;23.30;53.30
34640;DHT22;22600;48.186;11.526;2023-04-24T07:21:11;23.20;53.20
34640;DHT22;22600;48.186;11.526;2023-04-24T07:23:36;23.30;53.20
34640;DHT22;22600;48.186;11.526;2023-04-24T07:26:02;23.30;53.20
34640;DHT22;22600;48.186;11.526;2023-04-24T07:28:28;23.30;53.20
34640;DHT22;22600;48.186;11.526;2023-04-24T07:30:56;23.30;53.20
34640;DHT22;22600;48.186;11.526;2023-04-24T07:33:22;23.30;53.20
34640;DHT22;22600;48.186;11.526;2023-04-24T07:35:48;23.30;53.20
34640;DHT22;22600;48.186;11.526;2023-04-24T07:38:13;23.30;53.80
34640;DHT22;22600;48.186;11.526;2023-04-24T07:40:39;23.20;53.20
34640;DHT22;22600;48.186;11.526;2023-04-24T07:43:04;23.30;53.20
34640;DHT22;22600;48.186;11.526;2023-04-24T07:45:30;23.30;53.20
34640;DHT22;22600;48.186;11.526;2023-04-24T07:47:56;23.30;53.20
34640;DHT22;22600;48.186;11.526;2023-04-24T07:50:22;23.30;53.20
34640;DHT22;22600;48.186;11.526;2023-04-24T07:52:47;23.30;53.20
34640;DHT22;22600;48.186;11.526;2023-04-24T07:55:13;23.20;53.20
34640;DHT22;22600;48.186;11.526;2023-04-24T07:57:38;23.30;53.20
34640;DHT22;22600;48.186;11.526;2023-04-24T08:00:04;23.20;53.20
34640;DHT22;22600;48.186;11.526;2023-04-24T08:02:31;23.30;53.20
34640;DHT22;22600;48.186;11.526;2023-04-24T08:04:56;23.20;53.20
34640;DHT22;22600;48.186;11.526;2023-04-24T08:07:23;23.20;53.20
34640;DHT22;22600;48.186;11.526;2023-04-24T08:09:48;23.30;53.10
34640;DHT22;22600;48.186;11.526;2023-04-24T08:12:14;23.30;53.10
34640;DHT22;22600;48.186;11.526;2023-04-24T08:14:39;23.30;53.10
34640;DHT22;22600;48.186;11.526;2023-04-24T08:17:05;23.30;53.10
34640;DHT22;22600;48.186;11.526;2023-04-24T08:19:30;23.30;53.10
34640;DHT22;22600;48.186;11.526;2023-04-24T08:21:56;23.30;53.20
34640;DHT22;22600;48.186;11.526;2023-04-24T08:24:22;23.20;53.10
34640;DHT22;22600;48.186;11.526;2023-04-24T08:26:47;23.40;53.20
34640;DHT22;22600;48.186;11.526;2023-04-24T08:29:15;23.30;53.10
34640;DHT22;22600;48.186;11.526;2023-04-24T08:31:41;23.20;53.10
34640;DHT22;22600;48.186;11.526;2023-04-24T08:34:06;23.20;53.20
34640;DHT22;22600;48.186;11.526;2023-04-24T08:36:32;23.20;53.10
34640;DHT22;22600;48.186;11.526;2023-04-24T08:38:57;23.20;53.10
34640;DHT22;22600;48.186;11.526;2023-04-24T08:41:23;23.30;53.20
34640;DHT22;22600;48.186;11.526;2023-04-24T08:43:51;23.20;53.10
34640;DHT22;22600;48.186;11.526;2023-04-24T08:46:17;23.20;53.20
34640;DHT22;22600;48.186;11.526;2023-04-24T08:48:43;23.20;53.10
34640;DHT22;22600;48.186;11.526;2023-04-24T08:51:09;23.20;53.10
34640;DHT22;22600;48.186;11.526;2023-04-24T08:53:35;23.20;53.10
34640;DHT22;22600;48.186;11.526;2023-04-24T08:56:00;23.40;53.10
34640;DHT22;22600;48.186;11.526;2023-04-24T08:58:26;23.30;53.00
34640;DHT22;22600;48.186;11.526;2023-04-24T09:00:54;23.30;53.10
34640;DHT22;22600;48.186;11.526;2023-04-24T09:03:19;23.20;53.00
34640;DHT22;22600;48.186;11.526;2023-04-24T09:05:46;23.20;52.90
34640;DHT22;22600;48.186;11.526;2023-04-24T09:08:15;23.20;52.90
34640;DHT22;22600;48.186;11.526;2023-04-24T09:10:41;23.30;52.90
34640;DHT22;22600;48.186;11.526;2023-04-24T09:13:06;23.20;52.80
34640;DHT22;22600;48.186;11.526;2023-04-24T09:15:34;23.20;52.90
34640;DHT22;22600;48.186;11.526;2023-04-24T09:18:00;23.20;52.90
34640;DHT22;22600;48.186;11.526;2023-04-24T09:20:26;23.30;52.90
34640;DHT22;22600;48.186;11.526;2023-04-24T09:22:53;23.20;53.40
34640;DHT22;22600;48.186;11.526;2023-04-24T09:25:19;23.20;52.80
34640;DHT22;22600;48.186;11.526;2023-04-24T09:27:45;22.80;52.50
34640;DHT22;22600;48.186;11.526;2023-04-24T09:30:10;23.20;52.60
34640;DHT22;22600;48.186;11.526;2023-04-24T09:32:36;23.30;52.70
34640;DHT22;22600;48.186;11.526;2023-04-24T09:35:19;23.20;52.60
34640;DHT22;22600;48.186;11.526;2023-04-24T09:37:46;23.20;52.60
34640;DHT22;22600;48.186;11.526;2023-04-24T09:42:37;23.20;52.60
34640;DHT22;22600;48.186;11.526;2023-04-24T09:45:03;25.70;53.80
34640;DHT22;22600;48.186;11.526;2023-04-24T09:47:35;23.20;52.50
34640;DHT22;22600;48.186;11.526;2023-04-24T09:50:01;23.20;52.50
34640;DHT22;22600;48.186;11.526;2023-04-24T09:52:33;23.20;52.40
34640;DHT22;22600;48.186;11.526;2023-04-24T09:54:59;23.20;52.40
34640;DHT22;22600;48.186;11.526;2023-04-24T09:57:24;23.20;52.40
34640;DHT22;22600;48.186;11.526;2023-04-24T09:59:50;23.20;52.30
34640;DHT22;22600;48.186;11.526;2023-04-24T10:02:21;23.80;52.60
34640;DHT22;22600;48.186;11.526;2023-04-24T10:04:56;23.20;52.30
34640;DHT22;22600;48.186;11.526;2023-04-24T10:07:21;23.20;52.10
34640;DHT22;22600;48.186;11.526;2023-04-24T10:09:47;23.20;51.90
34640;DHT22;22600;48.186;11.526;2023-04-24T10:12:13;23.30;52.00
34640;DHT22;22600;48.186;11.526;2023-04-24T10:14:39;23.20;51.90
34640;DHT22;22600;48.186;11.526;2023-04-24T10:17:04;23.20;52.00
34640;DHT22;22600;48.186;11.526;2023-04-24T10:19:31;23.20;52.00
34640;DHT22;22600;48.186;11.526;2023-04-24T10:21:57;23.20;52.10
34640;DHT22;22600;48.186;11.526;2023-04-24T10:24:23;23.30;52.20
34640;DHT22;22600;48.186;11.526;2023-04-24T10:26:49;23.30;52.20
34640;DHT22;22600;48.186;11.526;2023-04-24T10:29:16;23.20;52.20
34640;DHT22;22600;48.186;11.526;2023-04-24T10:31:41;25.70;53.60
34640;DHT22;22600;48.186;11.526;2023-04-24T10:34:09;23.30;52.30
34640;DHT22;22600;48.186;11.526;2023-04-24T10:36:35;23.30;52.40
34640;DHT22;22600;48.186;11.526;2023-04-24T10:39:02;23.30;52.40
34640;DHT22;22600;48.186;11.526;2023-04-24T10:41:27;23.30;52.40
34640;DHT22;22600;48.186;11.526;2023-04-24T10:44:07;23.30;52.50
34640;DHT22;22600;48.186;11.526;2023-04-24T10:46:33;23.30;52.50
34640;DHT22;22600;48.186;11.526;2023-04-24T10:48:59;23.30;52.50
34640;DHT22;22600;48.186;11.526;2023-04-24T10:51:43;23.20;52.50
34640;DHT22;22600;48.186;11.526;2023-04-24T10:54:22;26.20;54.20
34640;DHT22;22600;48.186;11.526;2023-04-24T10:56:49;23.30;52.70
34640;DHT22;22600;48.186;11.526;2023-04-24T10:59:23;23.30;52.70
34640;DHT22;22600;48.186;11.526;2023-04-24T11:01:52;23.30;52.70
34640;DHT22;22600;48.186;11.526;2023-04-24T11:04:22;23.30;52.70
34640;DHT22;22600;48.186;11.526;2023-04-24T11:06:54;23.30;52.70
34640;DHT22;22600;48.186;11.526;2023-04-24T11:09:19;25.20;53.70
34640;DHT22;22600;48.186;11.526;2023-04-24T11:11:46;23.30;52.80
34640;DHT22;22600;48.186;11.526;2023-04-24T11:14:15;23.30;52.80
34640;DHT22;22600;48.186;11.526;2023-04-24T11:19:11;23.30;52.80
34640;DHT22;22600;48.186;11.526;2023-04-24T11:21:43;23.30;52.80
34640;DHT22;22600;48.186;11.526;2023-04-24T11:26:53;23.30;53.50
34640;DHT22;22600;48.186;11.526;2023-04-24T11:29:19;23.40;53.00
34640;DHT22;22600;48.186;11.526;2023-04-24T11:31:46;23.30;53.00
34640;DHT22;22600;48.186;11.526;2023-04-24T11:34:17;23.30;53.00
34640;DHT22;22600;48.186;11.526;2023-04-24T11:36:46;23.40;53.10
34640;DHT22;22600;48.186;11.526;2023-04-24T11:39:12;23.40;53.10
34640;DHT22;22600;48.186;11.526;2023-04-24T11:41:38;23.40;53.10
34640;DHT22;22600;48.186;11.526;2023-04-24T11:44:05;26.00;54.50
34640;DHT22;22600;48.186;11.526;2023-04-24T11:46:31;23.40;53.10
34640;DHT22;22600;48.186;11.526;2023-04-24T11:48:57;23.30;53.10
34640;DHT22;22600;48.186;11.526;2023-04-24T11:51:23;23.30;53.10
34640;DHT22;22600;48.186;11.526;2023-04-24T11:53:50;23.30;53.10
34640;DHT22;22600;48.186;11.526;2023-04-24T11:56:19;23.40;53.20
34640;DHT22;22600;48.186;11.526;2023-04-24T11:58:45;23.40;53.20
34640;DHT22;22600;48.186;11.526;2023-04-24T12:01:10;24.80;53.90
34640;DHT22;22600;48.186;11.526;2023-04-24T12:03:36;23.50;53.40
34640;DHT22;22600;48.186;11.526;2023-04-24T12:06:08;23.40;53.50
34640;DHT22;22600;48.186;11.526;2023-04-24T12:08:34;23.40;53.80
34640;DHT22;22600;48.186;11.526;2023-04-24T12:11:00;23.40;53.90
34640;DHT22;22600;48.186;11.526;2023-04-24T12:13:26;23.40;53.90
34640;DHT22;22600;48.186;11.526;2023-04-24T12:15:51;23.40;53.90
34640;DHT22;22600;48.186;11.526;2023-04-24T12:18:17;23.40;53.90
34640;DHT22;22600;48.186;11.526;2023-04-24T12:20:42;23.40;53.80
34640;DHT22;22600;48.186;11.526;2023-04-24T12:23:08;23.40;53.80
34640;DHT22;22600;48.186;11.526;2023-04-24T12:25:33;23.40;53.80
34640;DHT22;22600;48.186;11.526;2023-04-24T12:30:28;23.40;53.80
34640;DHT22;22600;48.186;11.526;2023-04-24T12:32:54;23.40;53.80
34640;DHT22;22600;48.186;11.526;2023-04-24T12:35:22;23.40;53.80
34640;DHT22;22600;48.186;11.526;2023-04-24T12:37:48;23.40;53.80
34640;DHT22;22600;48.186;11.526;2023-04-24T12:40:14;23.40;53.80
34640;DHT22;22600;48.186;11.526;2023-04-24T12:42:42;23.40;53.80
34640;DHT22;22600;48.186;11.526;2023-04-24T12:45:07;23.40;53.80
34640;DHT22;22600;48.186;11.526;2023-04-24T12:47:33;23.40;53.80
34640;DHT22;22600;48.186;11.526;2023-04-24T12:50:00;23.50;53.80
34640;DHT22;22600;48.186;11.526;2023-04-24T12:52:26;23.50;53.80
34640;DHT22;22600;48.186;11.526;2023-04-24T12:54:52;23.40;53.80
34640;DHT22;22600;48.186;11.526;2023-04-24T12:57:18;23.50;53.80
34640;DHT22;22600;48.186;11.526;2023-04-24T12:59:43;23.40;53.80
34640;DHT22;22600;48.186;11.526;2023-04-24T13:02:09;23.40;53.80
34640;DHT22;22600;48.186;11.526;2023-04-24T13:04:35;23.50;53.80
34640;DHT22;22600;48.186;11.526;2023-04-24T13:07:01;23.40;53.80
34640;DHT22;22600;48.186;11.526;2023-04-24T13:09:27;23.40;53.70
34640;DHT22;22600;48.186;11.526;2023-04-24T13:11:52;23.50;53.80
34640;DHT22;22600;48.186;11.526;2023-04-24T13:14:18;23.40;53.70
34640;DHT22;22600;48.186;11.526;2023-04-24T13:16:43;23.40;53.70
34640;DHT22;22600;48.186;11.526;2023-04-24T13:19:09;23.40;53.70
34640;DHT22;22600;48.186;11.526;2023-04-24T13:21:34;23.40;53.70
34640;DHT22;22600;48.186;11.526;2023-04-24T13:24:02;23.50;53.80
34640;DHT22;22600;48.186;11.526;2023-04-24T13:26:29;23.50;53.80
34640;DHT22;22600;48.186;11.526;2023-04-24T13:28:54;23.40;53.80
34640;DHT22;22600;48.186;11.526;2023-04-24T13:31:20;23.50;53.80
34640;DHT22;22600;48.186;11.526;2023-04-24T13:33:45;23.40;53.70
34640;DHT22;22600;48.186;11.526;2023-04-24T13:36:11;23.50;53.80
34640;DHT22;22600;48.186;11.526;2023-04-24T13:38:36;23.50;53.80
34640;DHT22;22600;48.186;11.526;2023-04-24T13:41:01;23.40;53.70
34640;DHT22;22600;48.186;11.526;2023-04-24T13:43:27;23.40;53.70
34640;DHT22;22600;48.186;11.526;2023-04-24T13:45:53;23.50;53.80
34640;DHT22;22600;48.186;11.526;2023-04-24T13:48:19;23.40;53.70
34640;DHT22;22600;48.186;11.526;2023-04-24T13:50:44;23.40;53.70
34640;DHT22;22600;48.186;11.526;2023-04-24T13:53:10;23.40;53.70
34640;DHT22;22600;48.186;11.526;2023-04-24T13:55:35;23.40;53.70
34640;DHT22;22600;48.186;11.526;2023-04-24T13:58:01;23.40;53.70
34640;DHT22;22600;48.186;11.526;2023-04-24T14:00:27;23.40;53.70
34640;DHT22;22600;48.186;11.526;2023-04-24T14:02:52;23.40;53.70
34640;DHT22;22600;48.186;11.526;2023-04-24T14:05:18;23.50;53.70
34640;DHT22;22600;48.186;11.526;2023-04-24T14:07:43;23.50;53.70
34640;DHT22;22600;48.186;11.526;2023-04-24T14:10:09;23.40;53.70
34640;DHT22;22600;48.186;11.526;2023-04-24T14:12:35;23.40;53.70
34640;DHT22;22600;48.186;11.526;2023-04-24T14:15:00;23.40;53.70
34640;DHT22;22600;48.186;11.526;2023-04-24T14:17:26;23.40;53.70
34640;DHT22;22600;48.186;11.526;2023-04-24T14:19:52;20.10;52.10
34640;DHT22;22600;48.186;11.526;2023-04-24T14:22:21;23.40;53.70
34640;DHT22;22600;48.186;11.526;2023-04-24T14:24:46;23.40;53.70
34640;DHT22;22600;48.186;11.526;2023-04-24T14:27:11;24.10;54.00
34640;DHT22;22600;48.186;11.526;2023-04-24T14:29:37;23.40;53.70
34640;DHT22;22600;48.186;11.526;2023-04-24T14:32:02;23.40;53.70
34640;DHT22;22600;48.186;11.526;2023-04-24T14:34:28;23.40;53.70
34640;DHT22;22600;48.186;11.526;2023-04-24T14:36:53;23.50;53.70
34640;DHT22;22600;48.186;11.526;2023-04-24T14:39:19;23.50;53.70
34640;DHT22;22600;48.186;11.526;2023-04-24T14:41:45;23.50;53.80
34640;DHT22;22600;48.186;11.526;2023-04-24T14:44:11;23.40;53.70
34640;DHT22;22600;48.186;11.526;2023-04-24T14:46:36;23.50;53.80
34640;DHT22;22600;48.186;11.526;2023-04-24T14:49:02;23.40;53.70
34640;DHT22;22600;48.186;11.526;2023-04-24T14:51:27;23.40;53.70
34640;DHT22;22600;48.186;11.526;2023-04-24T14:53:53;23.40;53.70
34640;DHT22;22600;48.186;11.526;2023-04-24T14:56:18;23.40;53.70
34640;DHT22;22600;48.186;11.526;2023-04-24T14:58:44;23.40;53.70
34640;DHT22;22600;48.186;11.526;2023-04-24T15:01:10;23.50;53.60
34640;DHT22;22600;48.186;11.526;2023-04-24T15:03:35;23.50;53.30
34640;DHT22;22600;48.186;11.526;2023-04-24T15:06:01;23.50;52.70
34640;DHT22;22600;48.186;11.526;2023-04-24T15:08:27;24.30;52.70
34640;DHT22;22600;48.186;11.526;2023-04-24T15:10:52;23.40;52.10
34640;DHT22;22600;48.186;11.526;2023-04-24T15:13:18;23.40;51.60
34640;DHT22;22600;48.186;11.526;2023-04-24T15:15:45;23.40;51.30
34640;DHT22;22600;48.186;11.526;2023-04-24T15:18:11;23.40;51.00